Time;durP1;ratioP1;P1;durP2;ratioP2;P2;SDS_P1;SDS_P2;PMS_P1;PMS_P2;Temp;Humidity;BMP_temperature;BMP_pressure;BME280_temperature;BME280_humidity;BME280_pressure;Samples;Min_cycle;Max_cycle;Signal;HPM_P1;HPM_P2
2024/03/03 00:00:46;;;;;;;39.80;24.20;;;7.70;99.90;;;;;;5069829;28;20437;-67
2024/03/03 00:03:14;;;;;;;38.20;20.50;;;7.60;99.90;;;;;;5071412;28;20826;-67
2024/03/03 00:05:43;;;;;;;37.60;20.30;;;7.50;99.90;;;;;;5063832;28;20554;-67
2024/03/03 00:08:11;;;;;;;38.37;21.70;;;7.60;99.90;;;;;;5065423;28;20481;-67
2024/03/03 00:10:41;;;;;;;43.17;20.87;;;7.60;99.90;;;;;;5049041;28;20462;-67
2024/03/03 00:13:08;;;;;;;42.10;21.13;;;7.60;99.90;;;;;;5057404;28;20445;-67
2024/03/03 00:15:37;;;;;;;34.33;20.83;;;7.60;99.90;;;;;;5069980;28;20445;-67
2024/03/03 00:18:06;;;;;;;37.43;20.90;;;7.60;99.90;;;;;;5069982;28;20461;-67
2024/03/03 00:20:34;;;;;;;43.80;23.30;;;7.60;99.90;;;;;;5068646;28;20485;-66
2024/03/03 00:23:02;;;;;;;42.13;21.50;;;7.60;99.90;;;;;;5068222;28;20498;-67
2024/03/03 00:25:30;;;;;;;38.57;21.67;;;7.60;99.90;;;;;;5068739;28;20473;-68
2024/03/03 00:27:59;;;;;;;41.00;21.23;;;7.60;99.90;;;;;;5061692;28;20880;-67
2024/03/03 00:30:27;;;;;;;39.60;21.90;;;7.50;99.90;;;;;;5069534;28;20429;-68
2024/03/03 00:32:55;;;;;;;43.90;23.70;;;7.60;99.90;;;;;;5069563;28;20445;-67
2024/03/03 00:35:23;;;;;;;42.40;24.03;;;7.60;99.90;;;;;;5069688;28;20483;-67
2024/03/03 00:37:51;;;;;;;38.80;22.00;;;7.60;99.90;;;;;;5068797;28;20571;-67
2024/03/03 00:40:19;;;;;;;47.60;23.90;;;7.50;99.90;;;;;;5060071;28;20874;-67
2024/03/03 00:42:47;;;;;;;41.60;22.60;;;7.50;99.90;;;;;;5061071;28;20555;-67
2024/03/03 00:45:17;;;;;;;36.93;20.97;;;7.50;99.90;;;;;;5069248;28;20957;-67
2024/03/03 00:47:45;;;;;;;36.57;22.00;;;7.50;99.90;;;;;;5068502;28;20472;-67
2024/03/03 00:50:13;;;;;;;41.10;20.70;;;7.50;99.90;;;;;;5060376;28;20454;-67
2024/03/03 00:52:41;;;;;;;36.00;21.20;;;7.40;99.90;;;;;;5069510;28;21248;-67
2024/03/03 00:55:10;;;;;;;40.90;21.40;;;7.40;99.90;;;;;;5068274;28;20443;-67
2024/03/03 00:57:38;;;;;;;38.53;21.07;;;7.30;99.90;;;;;;5060395;28;20515;-67
2024/03/03 01:00:09;;;;;;;39.50;20.50;;;7.30;99.90;;;;;;5065049;28;21045;-68
2024/03/03 01:02:38;;;;;;;36.10;19.60;;;7.30;99.90;;;;;;5063663;28;20451;-67
2024/03/03 01:05:10;;;;;;;37.40;20.20;;;7.40;99.90;;;;;;5068784;28;20530;-68
2024/03/03 01:07:39;;;;;;;36.40;19.60;;;7.40;99.90;;;;;;5063308;28;20475;-67
2024/03/03 01:10:10;;;;;;;37.37;20.67;;;7.30;99.90;;;;;;5067972;28;20482;-67
2024/03/03 01:12:38;;;;;;;40.50;21.60;;;7.30;99.90;;;;;;5063400;28;20439;-67
2024/03/03 01:15:07;;;;;;;34.13;20.73;;;7.20;99.90;;;;;;5068696;28;20450;-67
2024/03/03 01:17:35;;;;;;;39.97;19.80;;;7.10;99.90;;;;;;5067886;28;20479;-67
2024/03/03 01:20:06;;;;;;;38.23;21.57;;;7.00;99.90;;;;;;5059782;28;20825;-67
2024/03/03 01:22:34;;;;;;;40.80;20.93;;;7.00;99.90;;;;;;5067663;28;20428;-67
2024/03/03 01:25:02;;;;;;;41.70;21.00;;;6.90;99.90;;;;;;5065681;28;21213;-68
2024/03/03 01:27:30;;;;;;;36.47;19.60;;;6.80;99.90;;;;;;5068102;28;20467;-66
2024/03/03 01:29:58;;;;;;;41.00;21.30;;;6.80;99.90;;;;;;5068590;28;20586;-67
2024/03/03 01:32:28;;;;;;;42.80;22.27;;;6.80;99.90;;;;;;5068829;28;20958;-67
2024/03/03 01:34:56;;;;;;;39.80;21.57;;;6.80;99.90;;;;;;5059594;28;20475;-66
2024/03/03 01:37:25;;;;;;;42.03;23.20;;;6.80;99.90;;;;;;5068787;28;20470;-67
2024/03/03 01:39:54;;;;;;;40.90;22.40;;;6.80;99.90;;;;;;5069589;28;20499;-67
2024/03/03 01:42:22;;;;;;;37.70;20.77;;;6.70;99.90;;;;;;5060024;28;21006;-67
2024/03/03 01:44:50;;;;;;;39.90;21.97;;;6.70;99.90;;;;;;5068435;28;20477;-68
2024/03/03 01:47:18;;;;;;;43.27;21.40;;;6.60;99.90;;;;;;5067017;28;20484;-67
2024/03/03 01:49:50;;;;;;;43.70;22.53;;;6.60;99.90;;;;;;5066847;28;20479;-67
2024/03/03 01:52:19;;;;;;;46.53;23.77;;;6.70;99.90;;;;;;5066455;28;20489;-68
2024/03/03 01:54:49;;;;;;;35.73;20.53;;;6.70;99.90;;;;;;5066807;28;20435;-67
2024/03/03 01:57:19;;;;;;;43.10;19.73;;;6.50;99.90;;;;;;5065502;28;20463;-67
2024/03/03 01:59:49;;;;;;;45.63;22.23;;;6.50;99.90;;;;;;5066821;28;20449;-67
2024/03/03 02:02:18;;;;;;;44.37;21.27;;;6.40;99.90;;;;;;5067703;28;20475;-66
2024/03/03 02:04:47;;;;;;;44.43;22.97;;;6.40;99.90;;;;;;5067754;28;20454;-66
2024/03/03 02:07:15;;;;;;;42.63;21.50;;;6.40;99.90;;;;;;5056348;28;20545;-66
2024/03/03 02:09:45;;;;;;;45.40;24.47;;;6.40;99.90;;;;;;5048630;28;20597;-67
2024/03/03 02:12:14;;;;;;;39.17;21.67;;;6.40;99.90;;;;;;5047878;28;20444;-67
2024/03/03 02:14:42;;;;;;;39.50;22.70;;;6.20;99.90;;;;;;5048782;28;20498;-67
2024/03/03 02:17:10;;;;;;;41.00;20.90;;;6.20;99.90;;;;;;5067453;28;20477;-67
2024/03/03 02:19:38;;;;;;;38.63;20.73;;;6.00;99.90;;;;;;5068497;28;20447;-67
2024/03/03 02:22:07;;;;;;;36.73;20.37;;;5.90;99.90;;;;;;5068574;28;20447;-66
2024/03/03 02:24:36;;;;;;;45.37;23.37;;;5.90;99.90;;;;;;5054703;28;20487;-66
2024/03/03 02:27:05;;;;;;;39.80;21.70;;;5.90;99.90;;;;;;5048288;28;20651;-66
2024/03/03 02:29:33;;;;;;;42.20;24.20;;;5.80;99.90;;;;;;5048155;28;20444;-67
2024/03/03 02:32:01;;;;;;;43.80;21.70;;;5.80;99.90;;;;;;5057778;28;20447;-67
2024/03/03 02:34:29;;;;;;;39.23;20.73;;;5.70;99.90;;;;;;5067740;28;21009;-66
2024/03/03 02:36:57;;;;;;;42.87;22.23;;;5.70;99.90;;;;;;5068192;28;20483;-66
2024/03/03 02:39:26;;;;;;;43.47;20.80;;;5.80;99.90;;;;;;5068115;28;20542;-66
2024/03/03 02:41:54;;;;;;;40.00;20.40;;;5.70;99.90;;;;;;5067840;28;20504;-67
2024/03/03 02:44:23;;;;;;;41.63;22.60;;;5.70;99.90;;;;;;5060277;28;20526;-66
2024/03/03 02:46:51;;;;;;;41.27;23.43;;;5.70;99.90;;;;;;5068009;28;20574;-66
2024/03/03 02:49:19;;;;;;;40.07;22.07;;;5.60;99.90;;;;;;5064773;28;20538;-67
2024/03/03 02:51:47;;;;;;;42.30;20.70;;;5.50;99.90;;;;;;5047842;28;20488;-66
2024/03/03 02:54:15;;;;;;;41.97;22.40;;;5.50;99.90;;;;;;5048029;28;20445;-67
2024/03/03 02:56:45;;;;;;;44.37;22.57;;;5.50;99.90;;;;;;5048072;28;21097;-66
2024/03/03 02:59:13;;;;;;;51.13;23.73;;;5.50;99.90;;;;;;5048184;28;20474;-64
2024/03/03 03:01:40;;;;;;;46.13;22.30;;;5.50;99.90;;;;;;5052922;28;20454;-66
2024/03/03 03:04:08;;;;;;;46.67;23.50;;;5.50;99.90;;;;;;5068476;28;20454;-66
2024/03/03 03:06:36;;;;;;;46.20;23.70;;;5.50;99.90;;;;;;5054758;28;20451;-67
2024/03/03 03:09:05;;;;;;;37.80;21.63;;;5.50;99.90;;;;;;5057511;28;20466;-67
2024/03/03 03:11:36;;;;;;;39.07;21.13;;;5.60;99.90;;;;;;5067508;28;20571;-67
2024/03/03 03:14:05;;;;;;;41.10;22.17;;;5.50;99.90;;;;;;5067825;28;20504;-66
2024/03/03 03:16:33;;;;;;;38.33;20.33;;;5.50;99.90;;;;;;5054928;28;20447;-67
2024/03/03 03:19:01;;;;;;;43.03;21.10;;;5.50;99.90;;;;;;5046990;28;20521;-67
2024/03/03 03:21:29;;;;;;;36.03;19.93;;;5.40;99.90;;;;;;5055497;28;20527;-67
2024/03/03 03:23:57;;;;;;;34.17;18.50;;;5.30;99.90;;;;;;5067316;28;20445;-66
2024/03/03 03:26:25;;;;;;;41.37;19.33;;;5.20;99.90;;;;;;5059139;28;20986;-66
2024/03/03 03:28:53;;;;;;;41.23;21.70;;;5.10;99.90;;;;;;5051537;28;20456;-66
2024/03/03 03:31:22;;;;;;;42.10;20.20;;;5.00;99.90;;;;;;5050879;28;20599;-67
2024/03/03 03:33:50;;;;;;;40.17;18.80;;;5.10;99.90;;;;;;5051899;28;20984;-66
2024/03/03 03:36:18;;;;;;;37.90;20.00;;;5.00;99.90;;;;;;5050188;28;20960;-66
2024/03/03 03:38:46;;;;;;;41.40;20.00;;;5.10;99.90;;;;;;5066959;28;20476;-66
2024/03/03 03:41:14;;;;;;;37.07;21.63;;;5.00;99.90;;;;;;5066989;28;20443;-66
2024/03/03 03:43:42;;;;;;;43.90;20.50;;;5.10;99.90;;;;;;5067393;28;20798;-66
2024/03/03 03:46:10;;;;;;;44.60;20.87;;;5.10;99.90;;;;;;5066888;28;20457;-65
2024/03/03 03:48:39;;;;;;;42.70;19.87;;;5.10;99.90;;;;;;5067070;28;20459;-66
2024/03/03 03:51:08;;;;;;;38.53;20.40;;;5.10;99.90;;;;;;5066703;28;20476;-66
2024/03/03 03:53:36;;;;;;;40.70;21.63;;;5.00;99.90;;;;;;5066909;28;20452;-66
2024/03/03 03:56:04;;;;;;;42.17;20.20;;;5.00;99.90;;;;;;5065568;28;20526;-66
2024/03/03 03:58:32;;;;;;;40.97;21.73;;;4.90;99.90;;;;;;5067114;28;20469;-66
2024/03/03 04:01:00;;;;;;;38.17;21.37;;;4.90;99.90;;;;;;5067058;28;20450;-67
2024/03/03 04:03:28;;;;;;;40.50;19.80;;;4.80;99.90;;;;;;5066750;28;20452;-67
2024/03/03 04:05:57;;;;;;;42.10;20.30;;;4.80;99.90;;;;;;5067148;28;21237;-66
2024/03/03 04:08:25;;;;;;;46.67;21.97;;;4.80;99.90;;;;;;5066781;28;21195;-65
2024/03/03 04:10:53;;;;;;;42.87;21.53;;;4.60;99.90;;;;;;5065728;28;21311;-66
2024/03/03 04:13:21;;;;;;;48.20;21.87;;;4.60;99.90;;;;;;5066713;28;20800;-66
2024/03/03 04:15:49;;;;;;;46.03;22.10;;;4.70;99.90;;;;;;5066968;28;21045;-66
2024/03/03 04:18:17;;;;;;;44.73;21.50;;;4.60;99.90;;;;;;5066306;28;20475;-66
2024/03/03 04:20:47;;;;;;;46.27;20.57;;;4.60;99.90;;;;;;5066681;28;20928;-66
2024/03/03 04:23:17;;;;;;;44.23;23.80;;;4.60;99.90;;;;;;5066742;28;20508;-67
2024/03/03 04:25:45;;;;;;;42.47;21.47;;;4.50;99.90;;;;;;5066779;28;20954;-66
2024/03/03 04:28:13;;;;;;;48.80;25.20;;;4.40;99.90;;;;;;5066282;28;20548;-67
2024/03/03 04:30:41;;;;;;;47.83;22.33;;;4.40;99.90;;;;;;5068369;28;21316;-66
2024/03/03 04:33:09;;;;;;;45.60;22.63;;;4.30;99.90;;;;;;5070638;28;20528;-66
2024/03/03 04:35:37;;;;;;;49.33;22.30;;;4.40;99.90;;;;;;5070212;28;20547;-65
2024/03/03 04:38:05;;;;;;;44.27;21.27;;;4.50;99.90;;;;;;5070742;28;20468;-66
2024/03/03 04:40:34;;;;;;;48.03;22.33;;;4.50;99.90;;;;;;5070276;28;20966;-66
2024/03/03 04:43:03;;;;;;;44.83;21.63;;;4.40;99.90;;;;;;5069559;28;20539;-66
2024/03/03 04:45:31;;;;;;;44.43;21.10;;;4.40;99.90;;;;;;5050594;28;20461;-66
2024/03/03 04:47:59;;;;;;;43.87;21.77;;;4.40;99.90;;;;;;5050530;28;20471;-66
2024/03/03 04:50:28;;;;;;;40.23;21.80;;;4.30;99.90;;;;;;5055328;28;20543;-66
2024/03/03 04:52:56;;;;;;;44.97;22.60;;;4.40;99.90;;;;;;5070037;28;20487;-66
2024/03/03 04:55:23;;;;;;;54.60;24.27;;;4.40;99.90;;;;;;5070116;28;20443;-66
2024/03/03 04:57:53;;;;;;;46.87;22.93;;;4.40;99.90;;;;;;5070302;28;20838;-66
2024/03/03 05:00:21;;;;;;;43.20;21.67;;;4.30;99.90;;;;;;5059002;28;20601;-66
2024/03/03 05:02:50;;;;;;;41.03;20.33;;;4.40;99.90;;;;;;5049911;28;21049;-66
2024/03/03 05:05:18;;;;;;;40.83;20.63;;;4.30;99.90;;;;;;5050132;28;20456;-66
2024/03/03 05:07:46;;;;;;;40.83;21.60;;;4.30;99.90;;;;;;5065359;28;20525;-67
2024/03/03 05:10:14;;;;;;;45.23;22.07;;;4.30;99.90;;;;;;5055369;28;20448;-66
2024/03/03 05:12:42;;;;;;;44.87;22.47;;;4.20;99.90;;;;;;5055029;28;20492;-66
2024/03/03 05:15:11;;;;;;;44.17;23.63;;;4.30;99.90;;;;;;5058969;28;20443;-66
2024/03/03 05:17:39;;;;;;;44.73;22.90;;;4.30;99.90;;;;;;5061521;28;20525;-66
2024/03/03 05:20:08;;;;;;;43.70;19.87;;;4.20;99.90;;;;;;5052513;28;20444;-66
2024/03/03 05:22:37;;;;;;;45.77;23.63;;;4.30;99.90;;;;;;5062276;28;20452;-67
2024/03/03 05:25:06;;;;;;;48.73;21.73;;;4.30;99.90;;;;;;5053441;28;20512;-67
2024/03/03 05:27:34;;;;;;;54.03;24.13;;;4.30;99.90;;;;;;5050108;28;20465;-67
2024/03/03 05:30:02;;;;;;;44.60;22.50;;;4.30;99.90;;;;;;5049393;28;20502;-66
2024/03/03 05:32:32;;;;;;;36.13;19.93;;;4.40;99.90;;;;;;5056325;28;20560;-66
2024/03/03 05:35:00;;;;;;;44.10;20.97;;;4.30;99.90;;;;;;5057160;28;20452;-67
2024/03/03 05:37:28;;;;;;;44.57;21.13;;;4.30;99.90;;;;;;5066413;28;20959;-66
2024/03/03 05:39:56;;;;;;;48.37;22.53;;;4.20;99.90;;;;;;5053242;28;20680;-66
2024/03/03 05:42:24;;;;;;;43.57;21.10;;;4.10;99.90;;;;;;5047703;28;20440;-66
2024/03/03 05:44:52;;;;;;;46.37;21.27;;;4.10;99.90;;;;;;5051103;28;20444;-66
2024/03/03 05:47:20;;;;;;;39.40;19.87;;;4.10;99.90;;;;;;5058639;28;20544;-66
2024/03/03 05:49:49;;;;;;;38.93;20.70;;;4.00;99.90;;;;;;5062534;28;20606;-66
2024/03/03 05:52:17;;;;;;;47.33;20.37;;;3.90;99.90;;;;;;5049019;28;20919;-66
2024/03/03 05:54:45;;;;;;;53.80;24.20;;;3.90;99.90;;;;;;5057386;28;20444;-66
2024/03/03 05:57:14;;;;;;;46.50;22.40;;;3.90;99.90;;;;;;5067819;28;20455;-66
2024/03/03 05:59:42;;;;;;;49.20;22.10;;;3.90;99.90;;;;;;5048937;28;20454;-66
2024/03/03 06:02:10;;;;;;;40.77;20.77;;;3.80;99.90;;;;;;5048658;28;20490;-66
2024/03/03 06:04:38;;;;;;;40.27;21.40;;;3.70;99.90;;;;;;5050705;28;20496;-66
2024/03/03 06:07:07;;;;;;;38.63;19.27;;;3.60;99.90;;;;;;5068522;28;20570;-66
2024/03/03 06:09:35;;;;;;;48.23;21.73;;;3.60;99.90;;;;;;5062079;28;20448;-66
2024/03/03 06:12:05;;;;;;;43.87;20.53;;;3.60;99.90;;;;;;5048957;28;20541;-67
2024/03/03 06:14:33;;;;;;;43.00;20.67;;;3.70;99.90;;;;;;5049559;28;20990;-67
2024/03/03 06:17:01;;;;;;;42.40;21.30;;;3.70;99.90;;;;;;5048811;28;20454;-66
2024/03/03 06:19:29;;;;;;;43.27;21.53;;;3.80;99.90;;;;;;5062860;28;20840;-66
2024/03/03 06:21:57;;;;;;;39.00;19.70;;;3.90;99.90;;;;;;5060857;28;20479;-66
2024/03/03 06:24:27;;;;;;;49.30;22.07;;;3.80;99.90;;;;;;5048723;28;20444;-66
2024/03/03 06:26:54;;;;;;;47.90;20.87;;;3.90;99.90;;;;;;5048338;28;20517;-66
2024/03/03 06:29:22;;;;;;;44.47;22.30;;;4.00;99.90;;;;;;5048087;28;20930;-66
2024/03/03 06:31:51;;;;;;;46.37;21.50;;;4.00;99.90;;;;;;5056040;28;20520;-66
2024/03/03 06:34:19;;;;;;;44.40;21.10;;;3.90;99.90;;;;;;5066554;28;20455;-66
2024/03/03 06:36:47;;;;;;;38.30;19.53;;;3.90;99.90;;;;;;5050989;28;20460;-67
2024/03/03 06:39:15;;;;;;;37.80;21.23;;;4.10;99.90;;;;;;5067642;28;20455;-66
2024/03/03 06:41:44;;;;;;;37.80;21.47;;;4.00;99.90;;;;;;5067785;28;20780;-66
2024/03/03 06:44:16;;;;;;;45.53;24.50;;;4.10;99.90;;;;;;5068052;28;20444;-66
2024/03/03 06:46:45;;;;;;;43.53;22.20;;;4.20;99.90;;;;;;5068064;28;20467;-66
2024/03/03 06:49:13;;;;;;;36.80;19.73;;;4.30;99.90;;;;;;5050227;28;20549;-66
2024/03/03 06:51:42;;;;;;;42.33;21.03;;;4.60;99.90;;;;;;5065892;28;20458;-67
2024/03/03 06:54:10;;;;;;;40.10;21.00;;;4.70;99.90;;;;;;5066359;28;20832;-67
2024/03/03 06:56:38;;;;;;;41.27;20.30;;;4.70;99.90;;;;;;5067599;28;20481;-66
2024/03/03 06:59:07;;;;;;;43.53;20.83;;;4.80;99.90;;;;;;5067495;28;21067;-66
2024/03/03 07:01:35;;;;;;;41.00;21.77;;;4.80;99.90;;;;;;5059988;28;20437;-67
2024/03/03 07:04:20;;;;;;;39.90;21.17;;;4.80;99.90;;;;;;5067668;28;20454;-67
2024/03/03 07:06:48;;;;;;;42.83;22.17;;;5.00;99.90;;;;;;5061767;28;20446;-67
2024/03/03 07:09:18;;;;;;;45.30;23.10;;;5.20;99.90;;;;;;5057708;28;20912;-67
2024/03/03 07:11:46;;;;;;;44.40;21.50;;;5.30;99.90;;;;;;5052681;28;20454;-68
2024/03/03 07:14:15;;;;;;;40.50;21.83;;;5.50;99.90;;;;;;5047305;28;21245;-67
2024/03/03 07:16:43;;;;;;;42.53;21.70;;;5.70;99.90;;;;;;5051838;28;20491;-67
2024/03/03 07:19:11;;;;;;;36.27;20.13;;;5.80;99.90;;;;;;5051997;28;20468;-67
2024/03/03 07:21:39;;;;;;;34.20;19.10;;;6.10;99.90;;;;;;5047627;28;21237;-67
2024/03/03 07:24:07;;;;;;;38.97;20.60;;;6.20;99.90;;;;;;5048058;28;20454;-66
2024/03/03 07:26:35;;;;;;;41.47;21.70;;;6.30;99.90;;;;;;5051053;28;20498;-66
2024/03/03 07:29:03;;;;;;;41.70;18.90;;;6.40;99.90;;;;;;5051352;28;20518;-66
2024/03/03 07:31:33;;;;;;;34.83;17.80;;;6.50;99.90;;;;;;5053116;28;20538;-66
2024/03/03 07:34:00;;;;;;;36.10;19.07;;;6.50;99.90;;;;;;5054752;28;20848;-66
2024/03/03 07:36:28;;;;;;;37.50;20.00;;;6.70;99.90;;;;;;5047712;28;20447;-67
2024/03/03 07:38:56;;;;;;;34.77;19.67;;;7.00;99.90;;;;;;5047174;28;20537;-67
2024/03/03 07:41:24;;;;;;;34.73;19.97;;;7.30;99.90;;;;;;5047097;28;20448;-67
2024/03/03 07:43:52;;;;;;;32.83;19.43;;;7.50;99.90;;;;;;5049184;28;20471;-66
2024/03/03 07:46:20;;;;;;;31.50;17.13;;;7.70;99.90;;;;;;5049901;28;20447;-66
2024/03/03 07:48:49;;;;;;;34.47;18.60;;;7.70;99.90;;;;;;5047368;28;20469;-66
2024/03/03 07:51:19;;;;;;;34.13;18.23;;;7.80;99.90;;;;;;5066355;28;20478;-67
2024/03/03 07:53:47;;;;;;;42.67;18.50;;;7.90;99.90;;;;;;5066260;28;20492;-67
2024/03/03 07:56:15;;;;;;;32.23;17.40;;;8.00;99.90;;;;;;5065870;28;20532;-66
2024/03/03 07:58:43;;;;;;;32.80;19.00;;;8.00;99.90;;;;;;5066124;28;20464;-66
2024/03/03 08:01:11;;;;;;;37.87;21.77;;;8.10;99.90;;;;;;5057730;28;20445;-66
2024/03/03 08:03:39;;;;;;;33.50;17.77;;;8.10;99.90;;;;;;5046965;28;20439;-66
2024/03/03 08:06:10;;;;;;;29.47;18.33;;;8.10;99.90;;;;;;5061525;28;20470;-67
2024/03/03 08:08:38;;;;;;;32.93;19.67;;;8.20;99.90;;;;;;5066392;28;21045;-66
2024/03/03 08:11:06;;;;;;;31.93;17.60;;;8.30;99.90;;;;;;5050877;28;20947;-66
2024/03/03 08:13:34;;;;;;;32.47;17.60;;;8.30;99.90;;;;;;5050563;28;20512;-66
2024/03/03 08:16:03;;;;;;;36.37;19.77;;;8.30;99.90;;;;;;5055114;28;20447;-67
2024/03/03 08:18:31;;;;;;;34.70;19.13;;;8.20;99.90;;;;;;5050975;28;20470;-66
2024/03/03 08:20:59;;;;;;;37.30;19.77;;;8.20;99.90;;;;;;5054838;28;20533;-67
2024/03/03 08:23:28;;;;;;;30.60;17.40;;;8.20;99.90;;;;;;5070584;28;20548;-67
2024/03/03 08:25:56;;;;;;;35.10;18.57;;;8.40;99.90;;;;;;5070776;28;20486;-66
2024/03/03 08:28:24;;;;;;;29.77;16.80;;;8.70;99.90;;;;;;5070919;28;20487;-66
2024/03/03 08:30:52;;;;;;;30.30;17.10;;;9.10;99.90;;;;;;5064800;28;20454;-67
2024/03/03 08:33:20;;;;;;;27.60;16.77;;;9.50;99.90;;;;;;5070620;28;20478;-67
2024/03/03 08:35:48;;;;;;;31.30;17.10;;;9.70;99.90;;;;;;5069708;28;20442;-66
2024/03/03 08:38:16;;;;;;;30.27;17.50;;;9.90;99.90;;;;;;5068976;28;20470;-67
2024/03/03 08:40:46;;;;;;;30.73;17.47;;;9.90;99.90;;;;;;5056010;28;20490;-66
2024/03/03 08:43:14;;;;;;;30.30;17.43;;;9.90;99.90;;;;;;5057131;28;20527;-66
2024/03/03 08:45:42;;;;;;;31.87;17.60;;;9.80;99.90;;;;;;5049716;28;20452;-66
2024/03/03 08:48:10;;;;;;;31.20;16.67;;;9.90;99.90;;;;;;5054674;28;20527;-67
2024/03/03 08:50:38;;;;;;;31.03;16.77;;;10.10;99.90;;;;;;5069221;28;20446;-67
2024/03/03 08:53:06;;;;;;;29.17;17.17;;;10.50;99.90;;;;;;5065785;28;20447;-67
2024/03/03 08:55:34;;;;;;;29.90;17.47;;;10.70;99.90;;;;;;5069562;28;20444;-68
2024/03/03 08:58:03;;;;;;;27.20;15.70;;;10.90;99.90;;;;;;5069941;28;20889;-67
2024/03/03 09:00:31;;;;;;;28.37;16.37;;;11.10;99.90;;;;;;5069437;28;20456;-66
2024/03/03 09:03:00;;;;;;;26.23;16.20;;;11.10;99.90;;;;;;5069957;28;20450;-66
2024/03/03 09:05:28;;;;;;;27.10;15.57;;;11.00;99.90;;;;;;5068198;28;20438;-66
2024/03/03 09:07:56;;;;;;;26.20;15.77;;;11.10;99.90;;;;;;5062747;28;20475;-66
2024/03/03 09:10:24;;;;;;;29.57;18.37;;;11.10;99.90;;;;;;5068364;28;20443;-67
2024/03/03 09:12:53;;;;;;;26.60;16.03;;;11.00;99.90;;;;;;5069860;28;20477;-66
2024/03/03 09:15:22;;;;;;;29.37;16.40;;;11.00;99.90;;;;;;5069805;28;20841;-67
2024/03/03 09:17:50;;;;;;;25.17;16.17;;;11.00;99.90;;;;;;5068980;28;21016;-68
2024/03/03 09:20:18;;;;;;;27.63;15.80;;;10.90;99.90;;;;;;5069513;28;20825;-67
2024/03/03 09:22:46;;;;;;;28.67;16.00;;;11.00;99.90;;;;;;5069417;28;20751;-67
2024/03/03 09:25:17;;;;;;;28.10;14.53;;;11.20;99.90;;;;;;5069346;28;20537;-66
2024/03/03 09:27:45;;;;;;;26.77;16.10;;;11.40;99.90;;;;;;5069867;28;20821;-66
2024/03/03 09:30:14;;;;;;;26.60;14.70;;;11.40;99.90;;;;;;5069536;28;20493;-66
2024/03/03 09:32:43;;;;;;;23.53;14.40;;;11.50;99.90;;;;;;5070139;28;20927;-66
2024/03/03 09:35:11;;;;;;;26.90;15.37;;;11.70;99.90;;;;;;5053095;28;20905;-67
2024/03/03 09:37:39;;;;;;;24.50;14.07;;;11.80;99.90;;;;;;5060116;28;20993;-66
2024/03/03 09:40:14;;;;;;;25.70;14.60;;;11.70;99.90;;;;;;5067485;28;20536;-67
2024/03/03 09:42:45;;;;;;;22.83;13.43;;;11.90;99.90;;;;;;5061681;28;20448;-66
2024/03/03 09:45:14;;;;;;;23.43;14.27;;;12.10;99.90;;;;;;5064654;28;20443;-67
2024/03/03 09:47:45;;;;;;;23.70;13.30;;;12.40;99.90;;;;;;5069350;28;20468;-67
2024/03/03 09:50:14;;;;;;;20.37;12.80;;;12.90;99.90;;;;;;5068904;28;20443;-66
2024/03/03 09:52:45;;;;;;;22.10;12.70;;;13.20;99.90;;;;;;5057746;28;20483;-66
2024/03/03 09:55:13;;;;;;;24.93;14.03;;;13.20;99.90;;;;;;5055526;28;20565;-67
2024/03/03 09:57:41;;;;;;;24.40;12.77;;;13.50;99.90;;;;;;5065947;28;20481;-67
2024/03/03 10:00:11;;;;;;;23.30;13.00;;;14.00;99.90;;;;;;5050005;28;20454;-67
2024/03/03 10:02:40;;;;;;;24.17;15.23;;;14.30;99.90;;;;;;5033699;28;20457;-66
2024/03/03 10:05:10;;;;;;;23.43;14.10;;;14.10;98.80;;;;;;5065105;28;20459;-67
2024/03/03 10:07:41;;;;;;;19.37;12.00;;;14.10;97.90;;;;;;5065778;28;20443;-66
2024/03/03 10:10:09;;;;;;;20.13;11.93;;;14.10;98.00;;;;;;5064952;28;21005;-67
2024/03/03 10:12:40;;;;;;;21.10;12.40;;;14.30;97.90;;;;;;5066043;28;20451;-68
2024/03/03 10:15:10;;;;;;;21.07;12.97;;;14.90;97.90;;;;;;5065630;28;20483;-67
2024/03/03 10:17:38;;;;;;;19.77;12.03;;;15.30;95.70;;;;;;5057687;28;20467;-68
2024/03/03 10:20:07;;;;;;;17.37;11.43;;;15.80;94.80;;;;;;5051042;28;21122;-68
2024/03/03 10:22:37;;;;;;;20.27;11.67;;;16.20;93.50;;;;;;5052012;28;21098;-68
2024/03/03 10:25:11;;;;;;;18.47;12.17;;;16.30;91.50;;;;;;5055705;28;20439;-67
2024/03/03 10:27:40;;;;;;;18.40;12.00;;;16.50;90.20;;;;;;5067027;28;20921;-68
2024/03/03 10:30:09;;;;;;;19.30;11.63;;;16.90;86.10;;;;;;5067321;28;20450;-69
2024/03/03 10:32:38;;;;;;;18.03;11.37;;;17.30;83.70;;;;;;5064514;28;20838;-67
2024/03/03 10:35:09;;;;;;;16.60;10.67;;;17.40;80.30;;;;;;5061790;28;20485;-69
2024/03/03 10:37:48;;;;;;;17.33;10.13;;;17.20;80.90;;;;;;5067547;28;20463;-68
2024/03/03 10:40:16;;;;;;;17.67;10.10;;;17.30;80.30;;;;;;5059509;28;20459;-67
2024/03/03 10:42:44;;;;;;;17.17;11.20;;;17.50;79.90;;;;;;5064001;28;20448;-69
2024/03/03 10:45:12;;;;;;;17.30;11.37;;;17.70;77.00;;;;;;5065925;28;20554;-71
2024/03/03 10:47:40;;;;;;;17.47;10.70;;;17.40;76.90;;;;;;5059503;28;20561;-68
2024/03/03 10:50:09;;;;;;;16.93;10.37;;;17.20;76.40;;;;;;5060283;28;20451;-68
2024/03/03 10:52:40;;;;;;;17.67;11.27;;;16.80;75.70;;;;;;5058306;28;20474;-68
2024/03/03 10:55:10;;;;;;;17.20;10.00;;;16.80;77.90;;;;;;5062242;28;20497;-67
2024/03/03 10:57:39;;;;;;;17.17;11.00;;;16.70;77.40;;;;;;5062354;28;20872;-68
2024/03/03 11:00:14;;;;;;;19.23;11.10;;;16.70;79.20;;;;;;5062548;28;20447;-67
2024/03/03 11:02:42;;;;;;;18.47;11.23;;;17.10;77.50;;;;;;5059335;28;20463;-67
2024/03/03 11:05:13;;;;;;;18.23;10.73;;;17.10;76.40;;;;;;5062833;28;20941;-68
2024/03/03 11:07:44;;;;;;;18.23;10.33;;;17.40;76.40;;;;;;5063240;28;20582;-69
2024/03/03 11:10:13;;;;;;;21.67;12.23;;;17.40;77.50;;;;;;5063209;28;20442;-67
2024/03/03 11:12:44;;;;;;;18.60;12.00;;;17.70;75.00;;;;;;5062482;28;20487;-68
2024/03/03 11:15:15;;;;;;;19.13;12.90;;;17.80;75.70;;;;;;5058097;28;21025;-67
2024/03/03 11:17:49;;;;;;;20.60;12.17;;;17.70;73.90;;;;;;5060225;28;20925;-67
2024/03/03 11:20:22;;;;;;;20.00;12.00;;;17.70;74.10;;;;;;5064075;28;20521;-67
2024/03/03 11:23:04;;;;;;;19.70;11.40;;;18.00;73.30;;;;;;5064423;28;20481;-68
2024/03/03 11:25:41;;;;;;;20.77;12.40;;;18.60;71.20;;;;;;5063367;28;20519;-67
2024/03/03 11:28:16;;;;;;;16.50;10.80;;;18.70;70.20;;;;;;5062094;28;20504;-68
2024/03/03 11:30:45;;;;;;;17.53;10.50;;;18.60;71.10;;;;;;5062621;28;20447;-68
2024/03/03 11:33:13;;;;;;;16.20;9.77;;;19.00;70.60;;;;;;5062965;28;20470;-67
2024/03/03 11:35:42;;;;;;;15.10;9.57;;;19.60;69.00;;;;;;5063804;28;20482;-68
2024/03/03 11:38:11;;;;;;;17.07;10.43;;;20.00;66.70;;;;;;5064590;28;20545;-68
2024/03/03 11:40:41;;;;;;;18.20;11.43;;;20.20;66.70;;;;;;5061113;28;20439;-69
2024/03/03 11:43:11;;;;;;;16.30;11.00;;;20.00;64.30;;;;;;5064418;28;20431;-67
2024/03/03 11:45:42;;;;;;;15.90;9.87;;;19.60;66.10;;;;;;5062124;28;20431;-67
2024/03/03 11:48:11;;;;;;;16.33;10.33;;;19.50;66.30;;;;;;5064899;28;20478;-67
2024/03/03 11:50:39;;;;;;;16.13;10.03;;;20.00;65.60;;;;;;5062802;28;20435;-68
2024/03/03 11:53:07;;;;;;;16.93;10.30;;;20.50;66.20;;;;;;5063941;28;20474;-68
2024/03/03 11:55:39;;;;;;;16.73;10.53;;;20.40;64.40;;;;;;5064059;28;20471;-67
2024/03/03 11:58:07;;;;;;;15.47;10.00;;;20.00;64.70;;;;;;5062025;28;20886;-67
2024/03/03 12:00:36;;;;;;;16.67;9.23;;;19.90;64.80;;;;;;5063082;28;20437;-67
2024/03/03 12:03:07;;;;;;;15.93;10.00;;;19.60;65.70;;;;;;5061754;28;20451;-68
2024/03/03 12:05:35;;;;;;;16.17;10.63;;;19.00;66.60;;;;;;5060651;28;20433;-67
2024/03/03 12:08:06;;;;;;;16.50;9.90;;;18.70;68.10;;;;;;5063511;28;20570;-68
2024/03/03 12:10:34;;;;;;;17.50;10.90;;;19.10;68.10;;;;;;5063157;28;20436;-66
2024/03/03 12:13:04;;;;;;;16.30;9.87;;;19.10;66.70;;;;;;5062161;28;20929;-68
2024/03/03 12:15:32;;;;;;;18.47;10.50;;;19.50;66.90;;;;;;5058650;28;20549;-67
2024/03/03 12:18:01;;;;;;;18.33;11.83;;;20.20;65.60;;;;;;5061329;28;20459;-69
2024/03/03 12:20:30;;;;;;;18.93;10.30;;;20.10;67.30;;;;;;5060139;28;20447;-68
2024/03/03 12:22:58;;;;;;;16.50;10.43;;;21.10;64.20;;;;;;5060607;28;20439;-70
2024/03/03 12:25:26;;;;;;;16.40;10.37;;;21.80;60.40;;;;;;5048728;28;20497;-68
2024/03/03 12:27:56;;;;;;;15.87;9.57;;;22.30;59.00;;;;;;5048338;28;20542;-68
2024/03/03 12:30:35;;;;;;;17.93;11.83;;;23.00;59.20;;;;;;5049422;28;20450;-68
2024/03/03 12:33:05;;;;;;;15.27;10.10;;;23.50;56.70;;;;;;5047950;28;20468;-68
2024/03/03 12:35:35;;;;;;;17.87;8.73;;;23.50;55.80;;;;;;5050763;28;20566;-68
2024/03/03 12:38:04;;;;;;;16.47;9.37;;;24.10;55.50;;;;;;5052613;28;20539;-68
2024/03/03 12:40:33;;;;;;;14.60;8.87;;;23.30;54.20;;;;;;5052230;28;20444;-67